aviador You're here:

EGUN Decoded Metar

MILDENHALL in ENGLAND
Report Time2017-08-18 00:58:00
UTC Time2017-08-18 01:10:20
Flight Rules vfr VFR
Wind220° at 09 kt
W.Decomp.*RWY 29: 3.2 kt HW 8.4 kt LCW
W.Rank220° ranks 2
Current wind is below 220° avg. (9.8)
Visibility9999 m
Phenomena:N/A
Clouds:Few 070 Hf
CeilingNone
Temp16°C (ISA +1)
Dew Point16°C (100% RH)
AAT14.7°C
QNH1009 hPa
Density Alt535 ft
Elevation33 ft
Report Wrong Elevation
Raw Report
METAR EGUN 180058Z AUTO 22009KT 9999 FEW070 16/16 A2981 RMK AO2 SLP098
T01580158=

Extra information for EGUN:More info

Metar Taf Metar & Taf Last 4 Metars F.Rules Stats Wind Profile Meteogram Temp Stats Airport Information Weather charts Add Link Nearby VenuesMetar ALERT Operation Metar Decoded Social comments